sensor_id;sensor_type;location;lat;lon;timestamp;temperature;humidity
17807;DHT22;9027;48.938;9.182;2023-02-08T00:00:24;-1.20;99.90
17807;DHT22;9027;48.938;9.182;2023-02-08T00:01:56;-1.10;99.90
17807;DHT22;9027;48.938;9.182;2023-02-08T00:03:28;-1.10;99.90
17807;DHT22;9027;48.938;9.182;2023-02-08T00:05:00;-1.20;99.90
17807;DHT22;9027;48.938;9.182;2023-02-08T00:06:32;-1.20;99.90
17807;DHT22;9027;48.938;9.182;2023-02-08T00:08:04;-1.30;99.90
17807;DHT22;9027;48.938;9.182;2023-02-08T00:09:36;-1.40;99.90
17807;DHT22;9027;48.938;9.182;2023-02-08T00:11:08;-1.40;99.90
17807;DHT22;9027;48.938;9.182;2023-02-08T00:12:41;-1.50;99.90
17807;DHT22;9027;48.938;9.182;2023-02-08T00:14:13;-1.70;99.90
17807;DHT22;9027;48.938;9.182;2023-02-08T00:15:45;-1.80;99.90
17807;DHT22;9027;48.938;9.182;2023-02-08T00:17:17;-1.90;99.90
17807;DHT22;9027;48.938;9.182;2023-02-08T00:18:49;-1.80;99.90
17807;DHT22;9027;48.938;9.182;2023-02-08T00:20:21;-1.70;99.90
17807;DHT22;9027;48.938;9.182;2023-02-08T00:21:54;-1.70;99.90
17807;DHT22;9027;48.938;9.182;2023-02-08T00:23:26;-1.70;99.90
17807;DHT22;9027;48.938;9.182;2023-02-08T00:24:58;-1.70;99.90
17807;DHT22;9027;48.938;9.182;2023-02-08T00:26:30;-1.60;99.90
17807;DHT22;9027;48.938;9.182;2023-02-08T00:28:03;-1.60;99.90
17807;DHT22;9027;48.938;9.182;2023-02-08T00:29:35;-1.50;99.90
17807;DHT22;9027;48.938;9.182;2023-02-08T00:31:07;-1.50;99.90
17807;DHT22;9027;48.938;9.182;2023-02-08T00:32:39;-1.50;99.90
17807;DHT22;9027;48.938;9.182;2023-02-08T00:34:11;-1.50;99.90
17807;DHT22;9027;48.938;9.182;2023-02-08T00:35:43;-1.50;99.90
17807;DHT22;9027;48.938;9.182;2023-02-08T00:37:15;-1.50;99.90
17807;DHT22;9027;48.938;9.182;2023-02-08T00:38:47;-1.60;99.90
17807;DHT22;9027;48.938;9.182;2023-02-08T00:40:19;-1.60;99.90
17807;DHT22;9027;48.938;9.182;2023-02-08T00:41:51;-1.60;99.90
17807;DHT22;9027;48.938;9.182;2023-02-08T00:43:23;-1.60;99.90
17807;DHT22;9027;48.938;9.182;2023-02-08T00:44:55;-1.50;99.90
17807;DHT22;9027;48.938;9.182;2023-02-08T00:46:27;-1.60;99.90
17807;DHT22;9027;48.938;9.182;2023-02-08T00:47:59;-1.60;99.90
17807;DHT22;9027;48.938;9.182;2023-02-08T00:49:31;-1.60;99.90
17807;DHT22;9027;48.938;9.182;2023-02-08T00:51:06;-1.60;99.90
17807;DHT22;9027;48.938;9.182;2023-02-08T00:52:39;-1.60;99.90
17807;DHT22;9027;48.938;9.182;2023-02-08T00:54:12;-1.60;99.90
17807;DHT22;9027;48.938;9.182;2023-02-08T00:55:50;-1.60;99.90
17807;DHT22;9027;48.938;9.182;2023-02-08T00:57:20;-1.60;99.90
17807;DHT22;9027;48.938;9.182;2023-02-08T00:58:52;-1.60;99.90
17807;DHT22;9027;48.938;9.182;2023-02-08T01:00:24;-1.60;99.90
17807;DHT22;9027;48.938;9.182;2023-02-08T01:01:56;-1.60;99.90
17807;DHT22;9027;48.938;9.182;2023-02-08T01:03:28;-1.70;99.90
17807;DHT22;9027;48.938;9.182;2023-02-08T01:04:59;-1.70;99.90
17807;DHT22;9027;48.938;9.182;2023-02-08T01:06:31;-1.80;99.90
17807;DHT22;9027;48.938;9.182;2023-02-08T01:08:05;-1.80;99.90
17807;DHT22;9027;48.938;9.182;2023-02-08T01:09:36;-1.80;99.90
17807;DHT22;9027;48.938;9.182;2023-02-08T01:11:08;-1.80;99.90
17807;DHT22;9027;48.938;9.182;2023-02-08T01:12:41;-1.90;99.90
17807;DHT22;9027;48.938;9.182;2023-02-08T01:14:13;-1.90;99.90
17807;DHT22;9027;48.938;9.182;2023-02-08T01:15:45;-1.90;99.90
17807;DHT22;9027;48.938;9.182;2023-02-08T01:17:23;-1.90;99.90
17807;DHT22;9027;48.938;9.182;2023-02-08T01:18:57;-2.00;99.90
17807;DHT22;9027;48.938;9.182;2023-02-08T01:20:29;-2.10;99.90
17807;DHT22;9027;48.938;9.182;2023-02-08T01:22:01;-2.20;99.90
17807;DHT22;9027;48.938;9.182;2023-02-08T01:23:35;-2.10;99.90
17807;DHT22;9027;48.938;9.182;2023-02-08T01:25:07;-2.10;99.90
17807;DHT22;9027;48.938;9.182;2023-02-08T01:26:40;-2.10;99.90
17807;DHT22;9027;48.938;9.182;2023-02-08T01:28:12;-2.20;99.90
17807;DHT22;9027;48.938;9.182;2023-02-08T01:29:43;-2.30;99.90
17807;DHT22;9027;48.938;9.182;2023-02-08T01:31:16;-2.20;99.90
17807;DHT22;9027;48.938;9.182;2023-02-08T01:32:48;-2.30;99.90
17807;DHT22;9027;48.938;9.182;2023-02-08T01:34:20;-2.30;99.90
17807;DHT22;9027;48.938;9.182;2023-02-08T01:35:52;-2.30;99.90
17807;DHT22;9027;48.938;9.182;2023-02-08T01:37:23;-2.40;99.90
17807;DHT22;9027;48.938;9.182;2023-02-08T01:38:57;-2.30;99.90
17807;DHT22;9027;48.938;9.182;2023-02-08T01:40:28;-2.30;99.90
17807;DHT22;9027;48.938;9.182;2023-02-08T01:42:01;-2.30;99.90
17807;DHT22;9027;48.938;9.182;2023-02-08T01:43:56;-2.40;99.90
17807;DHT22;9027;48.938;9.182;2023-02-08T01:45:28;-2.50;99.90
17807;DHT22;9027;48.938;9.182;2023-02-08T01:47:00;-2.60;99.90
17807;DHT22;9027;48.938;9.182;2023-02-08T01:48:35;-2.50;99.90
17807;DHT22;9027;48.938;9.182;2023-02-08T01:50:08;-2.40;99.90
17807;DHT22;9027;48.938;9.182;2023-02-08T01:51:41;-2.40;99.90
17807;DHT22;9027;48.938;9.182;2023-02-08T01:53:14;-2.40;99.90
17807;DHT22;9027;48.938;9.182;2023-02-08T01:54:51;-2.40;99.90
17807;DHT22;9027;48.938;9.182;2023-02-08T01:56:27;-2.50;99.90
17807;DHT22;9027;48.938;9.182;2023-02-08T01:58:09;-2.50;99.90
17807;DHT22;9027;48.938;9.182;2023-02-08T01:59:44;-2.50;99.90
17807;DHT22;9027;48.938;9.182;2023-02-08T02:01:18;-2.40;99.90
17807;DHT22;9027;48.938;9.182;2023-02-08T02:02:51;-2.40;99.90
17807;DHT22;9027;48.938;9.182;2023-02-08T02:04:24;-2.40;99.90
17807;DHT22;9027;48.938;9.182;2023-02-08T02:06:01;-2.30;99.90
17807;DHT22;9027;48.938;9.182;2023-02-08T02:07:35;-2.30;99.90
17807;DHT22;9027;48.938;9.182;2023-02-08T02:09:13;-2.30;99.90
17807;DHT22;9027;48.938;9.182;2023-02-08T02:10:48;-2.30;99.90
17807;DHT22;9027;48.938;9.182;2023-02-08T02:12:20;-2.30;99.90
17807;DHT22;9027;48.938;9.182;2023-02-08T02:13:54;-2.40;99.90
17807;DHT22;9027;48.938;9.182;2023-02-08T02:15:26;-2.40;99.90
17807;DHT22;9027;48.938;9.182;2023-02-08T02:16:59;-2.30;99.90
17807;DHT22;9027;48.938;9.182;2023-02-08T02:18:31;-2.30;99.90
17807;DHT22;9027;48.938;9.182;2023-02-08T02:20:09;-2.40;99.90
17807;DHT22;9027;48.938;9.182;2023-02-08T02:21:52;-2.40;99.90
17807;DHT22;9027;48.938;9.182;2023-02-08T02:24:03;-2.50;99.90
17807;DHT22;9027;48.938;9.182;2023-02-08T02:25:51;-2.50;99.90
17807;DHT22;9027;48.938;9.182;2023-02-08T02:27:33;-2.50;99.90
17807;DHT22;9027;48.938;9.182;2023-02-08T02:29:32;-2.50;99.90
17807;DHT22;9027;48.938;9.182;2023-02-08T02:31:29;-2.60;99.90
17807;DHT22;9027;48.938;9.182;2023-02-08T02:33:26;-2.60;99.90
17807;DHT22;9027;48.938;9.182;2023-02-08T02:35:04;-2.60;99.90
17807;DHT22;9027;48.938;9.182;2023-02-08T02:36:45;-2.70;99.90
17807;DHT22;9027;48.938;9.182;2023-02-08T02:38:27;-2.60;99.90
17807;DHT22;9027;48.938;9.182;2023-02-08T02:40:09;-2.60;99.90
17807;DHT22;9027;48.938;9.182;2023-02-08T02:41:52;-2.50;99.90
17807;DHT22;9027;48.938;9.182;2023-02-08T02:43:45;-2.50;99.90
17807;DHT22;9027;48.938;9.182;2023-02-08T02:45:25;-2.50;99.90
17807;DHT22;9027;48.938;9.182;2023-02-08T02:47:08;-2.50;99.90
17807;DHT22;9027;48.938;9.182;2023-02-08T02:48:48;-2.40;99.90
17807;DHT22;9027;48.938;9.182;2023-02-08T02:50:23;-2.40;99.90
17807;DHT22;9027;48.938;9.182;2023-02-08T02:52:00;-2.40;99.90
17807;DHT22;9027;48.938;9.182;2023-02-08T02:53:36;-2.40;99.90
17807;DHT22;9027;48.938;9.182;2023-02-08T02:55:15;-2.50;99.90
17807;DHT22;9027;48.938;9.182;2023-02-08T02:56:51;-2.50;99.90
17807;DHT22;9027;48.938;9.182;2023-02-08T02:58:26;-2.60;99.90
17807;DHT22;9027;48.938;9.182;2023-02-08T02:59:58;-2.60;99.90
17807;DHT22;9027;48.938;9.182;2023-02-08T03:01:31;-2.60;99.90
17807;DHT22;9027;48.938;9.182;2023-02-08T03:03:05;-2.60;99.90
17807;DHT22;9027;48.938;9.182;2023-02-08T03:04:50;-2.60;99.90
17807;DHT22;9027;48.938;9.182;2023-02-08T03:06:33;-2.60;99.90
17807;DHT22;9027;48.938;9.182;2023-02-08T03:08:14;-2.60;99.90
17807;DHT22;9027;48.938;9.182;2023-02-08T03:09:57;-2.60;99.90
17807;DHT22;9027;48.938;9.182;2023-02-08T03:11:34;-2.60;99.90
17807;DHT22;9027;48.938;9.182;2023-02-08T03:13:14;-2.50;99.90
17807;DHT22;9027;48.938;9.182;2023-02-08T03:14:55;-2.60;99.90
17807;DHT22;9027;48.938;9.182;2023-02-08T03:16:35;-2.50;99.90
17807;DHT22;9027;48.938;9.182;2023-02-08T03:18:23;-2.50;99.90
17807;DHT22;9027;48.938;9.182;2023-02-08T03:20:06;-2.50;99.90
17807;DHT22;9027;48.938;9.182;2023-02-08T03:21:42;-2.50;99.90
17807;DHT22;9027;48.938;9.182;2023-02-08T03:23:20;-2.60;99.90
17807;DHT22;9027;48.938;9.182;2023-02-08T03:24:54;-2.60;99.90
17807;DHT22;9027;48.938;9.182;2023-02-08T03:26:33;-2.60;99.90
17807;DHT22;9027;48.938;9.182;2023-02-08T03:28:10;-2.70;99.90
17807;DHT22;9027;48.938;9.182;2023-02-08T03:29:50;-2.70;99.90
17807;DHT22;9027;48.938;9.182;2023-02-08T03:31:29;-2.80;99.90
17807;DHT22;9027;48.938;9.182;2023-02-08T03:33:07;-2.90;99.90
17807;DHT22;9027;48.938;9.182;2023-02-08T03:34:47;-2.90;99.90
17807;DHT22;9027;48.938;9.182;2023-02-08T03:36:25;-3.00;99.90
17807;DHT22;9027;48.938;9.182;2023-02-08T03:37:59;-3.00;99.90
17807;DHT22;9027;48.938;9.182;2023-02-08T03:39:35;-3.10;99.90
17807;DHT22;9027;48.938;9.182;2023-02-08T03:41:11;-3.00;99.90
17807;DHT22;9027;48.938;9.182;2023-02-08T03:42:43;-2.90;99.90
17807;DHT22;9027;48.938;9.182;2023-02-08T03:44:19;-2.90;99.90
17807;DHT22;9027;48.938;9.182;2023-02-08T03:45:56;-3.00;99.90
17807;DHT22;9027;48.938;9.182;2023-02-08T03:47:33;-3.00;99.90
17807;DHT22;9027;48.938;9.182;2023-02-08T03:49:08;-3.00;99.90
17807;DHT22;9027;48.938;9.182;2023-02-08T03:50:46;-2.90;99.90
17807;DHT22;9027;48.938;9.182;2023-02-08T03:52:21;-3.00;99.90
17807;DHT22;9027;48.938;9.182;2023-02-08T03:53:54;-3.30;99.90
17807;DHT22;9027;48.938;9.182;2023-02-08T03:55:30;-3.30;99.90
17807;DHT22;9027;48.938;9.182;2023-02-08T03:57:07;-3.30;99.90
17807;DHT22;9027;48.938;9.182;2023-02-08T03:58:45;-3.30;99.90
17807;DHT22;9027;48.938;9.182;2023-02-08T04:00:19;-3.20;99.90
17807;DHT22;9027;48.938;9.182;2023-02-08T04:01:56;-3.20;99.90
17807;DHT22;9027;48.938;9.182;2023-02-08T04:03:29;-3.20;99.90
17807;DHT22;9027;48.938;9.182;2023-02-08T04:05:04;-3.30;99.90
17807;DHT22;9027;48.938;9.182;2023-02-08T04:06:37;-3.30;99.90
17807;DHT22;9027;48.938;9.182;2023-02-08T04:08:09;-3.20;99.90
17807;DHT22;9027;48.938;9.182;2023-02-08T04:09:41;-3.20;99.90
17807;DHT22;9027;48.938;9.182;2023-02-08T04:11:13;-3.20;99.90
17807;DHT22;9027;48.938;9.182;2023-02-08T04:12:46;-3.10;99.90
17807;DHT22;9027;48.938;9.182;2023-02-08T04:14:18;-3.10;99.90
17807;DHT22;9027;48.938;9.182;2023-02-08T04:15:50;-3.00;99.90
17807;DHT22;9027;48.938;9.182;2023-02-08T04:17:22;-3.00;99.90
17807;DHT22;9027;48.938;9.182;2023-02-08T04:18:54;-3.00;99.90
17807;DHT22;9027;48.938;9.182;2023-02-08T04:20:25;-3.10;99.90
17807;DHT22;9027;48.938;9.182;2023-02-08T04:21:59;-3.20;99.90
17807;DHT22;9027;48.938;9.182;2023-02-08T04:23:31;-3.20;99.90
17807;DHT22;9027;48.938;9.182;2023-02-08T04:25:03;-3.10;99.90
17807;DHT22;9027;48.938;9.182;2023-02-08T04:26:35;-3.10;99.90
17807;DHT22;9027;48.938;9.182;2023-02-08T04:28:06;-3.10;99.90
17807;DHT22;9027;48.938;9.182;2023-02-08T04:29:38;-3.00;99.90
17807;DHT22;9027;48.938;9.182;2023-02-08T04:31:11;-2.90;99.90
17807;DHT22;9027;48.938;9.182;2023-02-08T04:32:42;-2.90;99.90
17807;DHT22;9027;48.938;9.182;2023-02-08T04:34:13;-2.90;99.90
17807;DHT22;9027;48.938;9.182;2023-02-08T04:35:44;-2.90;99.90
17807;DHT22;9027;48.938;9.182;2023-02-08T04:37:17;-2.90;99.90
17807;DHT22;9027;48.938;9.182;2023-02-08T04:38:49;-2.90;99.90
17807;DHT22;9027;48.938;9.182;2023-02-08T04:40:21;-2.90;99.90
17807;DHT22;9027;48.938;9.182;2023-02-08T04:41:53;-2.90;99.90
17807;DHT22;9027;48.938;9.182;2023-02-08T04:43:25;-3.00;99.90
17807;DHT22;9027;48.938;9.182;2023-02-08T04:44:57;-3.00;99.90
17807;DHT22;9027;48.938;9.182;2023-02-08T04:46:29;-3.00;99.90
17807;DHT22;9027;48.938;9.182;2023-02-08T04:48:01;-3.00;99.90
17807;DHT22;9027;48.938;9.182;2023-02-08T04:49:33;-3.00;99.90
17807;DHT22;9027;48.938;9.182;2023-02-08T04:51:05;-3.10;99.90
17807;DHT22;9027;48.938;9.182;2023-02-08T04:52:38;-3.10;99.90
17807;DHT22;9027;48.938;9.182;2023-02-08T04:54:10;-3.10;99.90
17807;DHT22;9027;48.938;9.182;2023-02-08T04:55:42;-3.10;99.90
17807;DHT22;9027;48.938;9.182;2023-02-08T04:57:14;-3.10;99.90
17807;DHT22;9027;48.938;9.182;2023-02-08T04:58:45;-3.10;99.90
17807;DHT22;9027;48.938;9.182;2023-02-08T05:00:18;-3.20;99.90
17807;DHT22;9027;48.938;9.182;2023-02-08T05:01:50;-3.20;99.90
17807;DHT22;9027;48.938;9.182;2023-02-08T05:03:22;-3.20;99.90
17807;DHT22;9027;48.938;9.182;2023-02-08T05:04:53;-3.10;99.90
17807;DHT22;9027;48.938;9.182;2023-02-08T05:06:25;-3.10;99.90
17807;DHT22;9027;48.938;9.182;2023-02-08T05:07:58;-3.10;99.90
17807;DHT22;9027;48.938;9.182;2023-02-08T05:09:31;-3.10;99.90
17807;DHT22;9027;48.938;9.182;2023-02-08T05:11:02;-3.00;99.90
17807;DHT22;9027;48.938;9.182;2023-02-08T05:12:34;-3.10;99.90
17807;DHT22;9027;48.938;9.182;2023-02-08T05:14:06;-3.10;99.90
17807;DHT22;9027;48.938;9.182;2023-02-08T05:15:38;-3.10;99.90
17807;DHT22;9027;48.938;9.182;2023-02-08T05:17:10;-3.10;99.90
17807;DHT22;9027;48.938;9.182;2023-02-08T05:18:43;-3.20;99.90
17807;DHT22;9027;48.938;9.182;2023-02-08T05:20:15;-3.10;99.90
17807;DHT22;9027;48.938;9.182;2023-02-08T05:21:47;-2.90;99.90
17807;DHT22;9027;48.938;9.182;2023-02-08T05:23:20;-2.60;99.90
17807;DHT22;9027;48.938;9.182;2023-02-08T05:24:52;-2.60;99.90
17807;DHT22;9027;48.938;9.182;2023-02-08T05:26:24;-2.70;99.90
17807;DHT22;9027;48.938;9.182;2023-02-08T05:27:56;-2.80;99.90
17807;DHT22;9027;48.938;9.182;2023-02-08T05:29:29;-2.90;99.90
17807;DHT22;9027;48.938;9.182;2023-02-08T05:31:08;-3.00;99.90
17807;DHT22;9027;48.938;9.182;2023-02-08T05:32:40;-3.00;99.90
17807;DHT22;9027;48.938;9.182;2023-02-08T05:34:12;-3.00;99.90
17807;DHT22;9027;48.938;9.182;2023-02-08T05:35:44;-3.00;99.90
17807;DHT22;9027;48.938;9.182;2023-02-08T05:37:16;-3.00;99.90
17807;DHT22;9027;48.938;9.182;2023-02-08T05:38:49;-3.00;99.90
17807;DHT22;9027;48.938;9.182;2023-02-08T05:40:23;-3.00;99.90
17807;DHT22;9027;48.938;9.182;2023-02-08T05:41:54;-3.00;99.90
17807;DHT22;9027;48.938;9.182;2023-02-08T05:43:26;-3.10;99.90
17807;DHT22;9027;48.938;9.182;2023-02-08T05:44:58;-3.10;99.90
17807;DHT22;9027;48.938;9.182;2023-02-08T05:46:30;-3.20;99.90
17807;DHT22;9027;48.938;9.182;2023-02-08T05:48:02;-3.40;99.90
17807;DHT22;9027;48.938;9.182;2023-02-08T05:49:34;-3.40;99.90
17807;DHT22;9027;48.938;9.182;2023-02-08T05:51:06;-3.50;99.90
17807;DHT22;9027;48.938;9.182;2023-02-08T05:52:38;-3.50;99.90
17807;DHT22;9027;48.938;9.182;2023-02-08T05:54:11;-3.50;99.90
17807;DHT22;9027;48.938;9.182;2023-02-08T05:55:43;-3.50;99.90
17807;DHT22;9027;48.938;9.182;2023-02-08T05:57:14;-3.40;99.90
17807;DHT22;9027;48.938;9.182;2023-02-08T05:58:46;-3.50;99.90
17807;DHT22;9027;48.938;9.182;2023-02-08T06:00:19;-3.50;99.90
17807;DHT22;9027;48.938;9.182;2023-02-08T06:01:50;-3.60;99.90
17807;DHT22;9027;48.938;9.182;2023-02-08T06:03:22;-3.50;99.90
17807;DHT22;9027;48.938;9.182;2023-02-08T06:04:54;-3.50;99.90
17807;DHT22;9027;48.938;9.182;2023-02-08T06:06:27;-3.50;99.90
17807;DHT22;9027;48.938;9.182;2023-02-08T06:07:58;-3.50;99.90
17807;DHT22;9027;48.938;9.182;2023-02-08T06:09:32;-3.60;99.90
17807;DHT22;9027;48.938;9.182;2023-02-08T06:11:04;-3.70;99.90
17807;DHT22;9027;48.938;9.182;2023-02-08T06:12:36;-3.80;99.90
17807;DHT22;9027;48.938;9.182;2023-02-08T06:14:07;-3.70;99.90
17807;DHT22;9027;48.938;9.182;2023-02-08T06:15:39;-3.60;99.90
17807;DHT22;9027;48.938;9.182;2023-02-08T06:17:11;-3.50;99.90
17807;DHT22;9027;48.938;9.182;2023-02-08T06:18:43;-3.40;99.90
17807;DHT22;9027;48.938;9.182;2023-02-08T06:20:15;-3.40;99.90
17807;DHT22;9027;48.938;9.182;2023-02-08T06:21:47;-3.40;99.90
17807;DHT22;9027;48.938;9.182;2023-02-08T06:23:19;-3.40;99.90
17807;DHT22;9027;48.938;9.182;2023-02-08T06:24:52;-3.40;99.90
17807;DHT22;9027;48.938;9.182;2023-02-08T06:26:24;-3.40;99.90
17807;DHT22;9027;48.938;9.182;2023-02-08T06:27:56;-3.40;99.90
17807;DHT22;9027;48.938;9.182;2023-02-08T06:29:28;-3.40;99.90
17807;DHT22;9027;48.938;9.182;2023-02-08T06:30:59;-3.40;99.90
17807;DHT22;9027;48.938;9.182;2023-02-08T06:32:31;-3.30;99.90
17807;DHT22;9027;48.938;9.182;2023-02-08T06:34:03;-3.40;99.90
17807;DHT22;9027;48.938;9.182;2023-02-08T06:35:35;-3.40;99.90
17807;DHT22;9027;48.938;9.182;2023-02-08T06:37:07;-3.40;99.90
17807;DHT22;9027;48.938;9.182;2023-02-08T06:38:38;-3.40;99.90
17807;DHT22;9027;48.938;9.182;2023-02-08T06:40:12;-3.50;99.90
17807;DHT22;9027;48.938;9.182;2023-02-08T06:41:43;-3.50;99.90
17807;DHT22;9027;48.938;9.182;2023-02-08T06:43:15;-3.50;99.90
17807;DHT22;9027;48.938;9.182;2023-02-08T06:44:47;-3.40;99.90
17807;DHT22;9027;48.938;9.182;2023-02-08T06:46:19;-3.40;99.90
17807;DHT22;9027;48.938;9.182;2023-02-08T06:47:51;-3.50;99.90
17807;DHT22;9027;48.938;9.182;2023-02-08T06:49:23;-3.60;99.90
17807;DHT22;9027;48.938;9.182;2023-02-08T06:50:55;-3.50;99.90
17807;DHT22;9027;48.938;9.182;2023-02-08T06:52:27;-3.40;99.90
17807;DHT22;9027;48.938;9.182;2023-02-08T06:53:59;-3.40;99.90
17807;DHT22;9027;48.938;9.182;2023-02-08T06:55:32;-3.30;99.90
17807;DHT22;9027;48.938;9.182;2023-02-08T06:57:04;-3.30;99.90
17807;DHT22;9027;48.938;9.182;2023-02-08T06:58:37;-3.30;99.90
17807;DHT22;9027;48.938;9.182;2023-02-08T07:00:10;-3.30;99.90
17807;DHT22;9027;48.938;9.182;2023-02-08T07:01:42;-3.30;99.90
17807;DHT22;9027;48.938;9.182;2023-02-08T07:03:14;-3.30;99.90
17807;DHT22;9027;48.938;9.182;2023-02-08T07:04:47;-3.20;99.90
17807;DHT22;9027;48.938;9.182;2023-02-08T07:06:19;-3.20;99.90
17807;DHT22;9027;48.938;9.182;2023-02-08T07:07:51;-3.20;99.90
17807;DHT22;9027;48.938;9.182;2023-02-08T07:09:23;-3.10;99.90
17807;DHT22;9027;48.938;9.182;2023-02-08T07:10:57;-3.00;99.90
17807;DHT22;9027;48.938;9.182;2023-02-08T07:12:31;-3.00;99.90
17807;DHT22;9027;48.938;9.182;2023-02-08T07:14:03;-2.90;99.90
17807;DHT22;9027;48.938;9.182;2023-02-08T07:15:35;-2.90;99.90
17807;DHT22;9027;48.938;9.182;2023-02-08T07:17:08;-2.90;99.90
17807;DHT22;9027;48.938;9.182;2023-02-08T07:18:41;-2.90;99.90
17807;DHT22;9027;48.938;9.182;2023-02-08T07:20:13;-2.90;99.90
17807;DHT22;9027;48.938;9.182;2023-02-08T07:21:45;-2.70;99.90
17807;DHT22;9027;48.938;9.182;2023-02-08T07:23:17;-2.30;99.90
17807;DHT22;9027;48.938;9.182;2023-02-08T07:24:49;-1.60;99.90
17807;DHT22;9027;48.938;9.182;2023-02-08T07:26:22;-1.20;99.90
17807;DHT22;9027;48.938;9.182;2023-02-08T07:27:54;-0.60;99.90
17807;DHT22;9027;48.938;9.182;2023-02-08T07:29:28;-0.10;99.90
17807;DHT22;9027;48.938;9.182;2023-02-08T07:31:03;0.10;99.90
17807;DHT22;9027;48.938;9.182;2023-02-08T07:32:35;-0.40;99.90
17807;DHT22;9027;48.938;9.182;2023-02-08T07:34:07;-0.50;99.90
17807;DHT22;9027;48.938;9.182;2023-02-08T07:35:39;0.10;99.90
17807;DHT22;9027;48.938;9.182;2023-02-08T07:37:11;0.80;99.90
17807;DHT22;9027;48.938;9.182;2023-02-08T07:38:43;1.80;99.90
17807;DHT22;9027;48.938;9.182;2023-02-08T07:40:15;2.90;99.90
17807;DHT22;9027;48.938;9.182;2023-02-08T07:41:48;3.90;99.90
17807;DHT22;9027;48.938;9.182;2023-02-08T07:43:20;4.90;99.90
17807;DHT22;9027;48.938;9.182;2023-02-08T07:45:00;5.60;99.90
17807;DHT22;9027;48.938;9.182;2023-02-08T07:46:33;6.20;99.90
17807;DHT22;9027;48.938;9.182;2023-02-08T07:48:05;7.10;99.90
17807;DHT22;9027;48.938;9.182;2023-02-08T07:49:37;8.00;99.90
17807;DHT22;9027;48.938;9.182;2023-02-08T07:51:10;7.90;97.60
17807;DHT22;9027;48.938;9.182;2023-02-08T07:52:42;8.60;95.10
17807;DHT22;9027;48.938;9.182;2023-02-08T07:54:15;8.80;92.80
17807;DHT22;9027;48.938;9.182;2023-02-08T07:55:47;9.40;92.60
17807;DHT22;9027;48.938;9.182;2023-02-08T07:57:20;9.90;90.10
17807;DHT22;9027;48.938;9.182;2023-02-08T07:58:53;10.40;87.20
17807;DHT22;9027;48.938;9.182;2023-02-08T08:00:24;10.70;82.90
17807;DHT22;9027;48.938;9.182;2023-02-08T08:01:56;10.70;78.90
17807;DHT22;9027;48.938;9.182;2023-02-08T08:03:28;10.60;80.80
17807;DHT22;9027;48.938;9.182;2023-02-08T08:05:00;10.80;80.60
17807;DHT22;9027;48.938;9.182;2023-02-08T08:06:32;10.60;77.10
17807;DHT22;9027;48.938;9.182;2023-02-08T08:08:04;10.20;78.70
17807;DHT22;9027;48.938;9.182;2023-02-08T08:09:36;9.70;75.40
17807;DHT22;9027;48.938;9.182;2023-02-08T08:11:08;9.00;80.60
17807;DHT22;9027;48.938;9.182;2023-02-08T08:12:41;9.30;81.00
17807;DHT22;9027;48.938;9.182;2023-02-08T08:14:13;9.30;79.70
17807;DHT22;9027;48.938;9.182;2023-02-08T08:15:46;9.90;81.80
17807;DHT22;9027;48.938;9.182;2023-02-08T08:17:18;10.90;77.20
17807;DHT22;9027;48.938;9.182;2023-02-08T08:18:49;11.50;74.00
17807;DHT22;9027;48.938;9.182;2023-02-08T08:20:21;11.70;72.40
17807;DHT22;9027;48.938;9.182;2023-02-08T08:21:54;11.50;70.40
17807;DHT22;9027;48.938;9.182;2023-02-08T08:23:25;11.50;72.10
17807;DHT22;9027;48.938;9.182;2023-02-08T08:24:58;12.20;71.50
17807;DHT22;9027;48.938;9.182;2023-02-08T08:26:30;12.70;69.90
17807;DHT22;9027;48.938;9.182;2023-02-08T08:28:04;12.20;66.40
17807;DHT22;9027;48.938;9.182;2023-02-08T08:29:36;12.40;68.20
17807;DHT22;9027;48.938;9.182;2023-02-08T08:31:09;12.20;67.60
17807;DHT22;9027;48.938;9.182;2023-02-08T08:32:41;12.20;68.20
17807;DHT22;9027;48.938;9.182;2023-02-08T08:34:13;12.00;66.30
17807;DHT22;9027;48.938;9.182;2023-02-08T08:35:45;12.70;67.10
17807;DHT22;9027;48.938;9.182;2023-02-08T08:37:17;13.30;66.10
17807;DHT22;9027;48.938;9.182;2023-02-08T08:38:50;14.00;64.80
17807;DHT22;9027;48.938;9.182;2023-02-08T08:40:22;14.10;62.70
17807;DHT22;9027;48.938;9.182;2023-02-08T08:41:56;14.20;61.40
17807;DHT22;9027;48.938;9.182;2023-02-08T08:43:29;14.20;61.80
17807;DHT22;9027;48.938;9.182;2023-02-08T08:45:01;14.30;60.00
17807;DHT22;9027;48.938;9.182;2023-02-08T08:46:33;14.30;60.40
17807;DHT22;9027;48.938;9.182;2023-02-08T08:48:05;14.70;61.50
17807;DHT22;9027;48.938;9.182;2023-02-08T08:49:37;14.70;59.10
17807;DHT22;9027;48.938;9.182;2023-02-08T08:51:10;15.00;58.60
17807;DHT22;9027;48.938;9.182;2023-02-08T08:52:42;14.70;57.80
17807;DHT22;9027;48.938;9.182;2023-02-08T08:54:14;15.10;59.10
17807;DHT22;9027;48.938;9.182;2023-02-08T08:55:46;15.20;57.40
17807;DHT22;9027;48.938;9.182;2023-02-08T08:57:17;15.20;57.50
17807;DHT22;9027;48.938;9.182;2023-02-08T08:58:51;15.50;57.10
17807;DHT22;9027;48.938;9.182;2023-02-08T09:00:23;16.00;57.20
17807;DHT22;9027;48.938;9.182;2023-02-08T09:01:55;16.10;55.50
17807;DHT22;9027;48.938;9.182;2023-02-08T09:03:27;15.90;55.10
17807;DHT22;9027;48.938;9.182;2023-02-08T09:04:59;16.30;54.40
17807;DHT22;9027;48.938;9.182;2023-02-08T09:06:33;16.50;54.30
17807;DHT22;9027;48.938;9.182;2023-02-08T09:08:05;15.50;54.10
17807;DHT22;9027;48.938;9.182;2023-02-08T09:09:37;15.30;55.00
17807;DHT22;9027;48.938;9.182;2023-02-08T09:11:12;13.90;55.10
17807;DHT22;9027;48.938;9.182;2023-02-08T09:12:44;13.70;56.20
17807;DHT22;9027;48.938;9.182;2023-02-08T09:14:17;13.40;57.00
17807;DHT22;9027;48.938;9.182;2023-02-08T09:15:49;12.30;57.80
17807;DHT22;9027;48.938;9.182;2023-02-08T09:17:21;11.20;60.40
17807;DHT22;9027;48.938;9.182;2023-02-08T09:18:53;11.70;60.80
17807;DHT22;9027;48.938;9.182;2023-02-08T09:20:25;11.50;61.60
17807;DHT22;9027;48.938;9.182;2023-02-08T09:21:56;11.40;63.00
17807;DHT22;9027;48.938;9.182;2023-02-08T09:23:30;12.40;61.30
17807;DHT22;9027;48.938;9.182;2023-02-08T09:25:02;12.80;60.70
17807;DHT22;9027;48.938;9.182;2023-02-08T09:26:34;13.30;59.80
17807;DHT22;9027;48.938;9.182;2023-02-08T09:28:06;12.80;58.30
17807;DHT22;9027;48.938;9.182;2023-02-08T09:29:39;12.00;61.00
17807;DHT22;9027;48.938;9.182;2023-02-08T09:31:12;12.10;60.80
17807;DHT22;9027;48.938;9.182;2023-02-08T09:32:45;12.10;59.80
17807;DHT22;9027;48.938;9.182;2023-02-08T09:34:17;11.90;59.60
17807;DHT22;9027;48.938;9.182;2023-02-08T09:35:49;12.30;60.00
17807;DHT22;9027;48.938;9.182;2023-02-08T09:37:21;12.50;58.50
17807;DHT22;9027;48.938;9.182;2023-02-08T09:38:54;12.20;57.90
17807;DHT22;9027;48.938;9.182;2023-02-08T09:40:36;10.70;59.40
17807;DHT22;9027;48.938;9.182;2023-02-08T09:42:20;10.50;62.00
17807;DHT22;9027;48.938;9.182;2023-02-08T09:44:14;10.20;62.00
17807;DHT22;9027;48.938;9.182;2023-02-08T09:45:53;9.20;63.70
17807;DHT22;9027;48.938;9.182;2023-02-08T09:47:30;8.60;67.30
17807;DHT22;9027;48.938;9.182;2023-02-08T09:49:07;8.40;69.20
17807;DHT22;9027;48.938;9.182;2023-02-08T09:50:44;8.90;68.10
17807;DHT22;9027;48.938;9.182;2023-02-08T09:52:20;9.20;67.60
17807;DHT22;9027;48.938;9.182;2023-02-08T09:53:56;9.40;66.70
17807;DHT22;9027;48.938;9.182;2023-02-08T09:55:33;9.60;64.40
17807;DHT22;9027;48.938;9.182;2023-02-08T09:57:10;9.70;65.30
17807;DHT22;9027;48.938;9.182;2023-02-08T09:58:46;10.00;65.10
17807;DHT22;9027;48.938;9.182;2023-02-08T10:00:26;10.00;64.00
17807;DHT22;9027;48.938;9.182;2023-02-08T10:02:13;10.10;63.80
17807;DHT22;9027;48.938;9.182;2023-02-08T10:03:49;10.10;64.40